Time;durP1;ratioP1;P1;durP2;ratioP2;P2;SDS_P1;SDS_P2;PMS_P1;PMS_P2;Temp;Humidity;BMP_temperature;BMP_pressure;BME280_temperature;BME280_humidity;BME280_pressure;Samples;Min_cycle;Max_cycle;Signal;HPM_P1;HPM_P2
2022/08/18 00:02:28;;;;;;;4.78;4.35;;;27.30;56.10;;;;;;5021740;28;20072;-56
2022/08/18 00:04:55;;;;;;;4.95;4.40;;;27.30;56.10;;;;;;5022525;28;20064;-55
2022/08/18 00:07:29;;;;;;;4.65;4.22;;;27.30;56.00;;;;;;5023112;28;20022;-53
2022/08/18 00:09:57;;;;;;;4.65;4.25;;;27.30;56.00;;;;;;5020565;28;20041;-54
2022/08/18 00:12:25;;;;;;;4.80;4.35;;;27.30;56.00;;;;;;5020483;28;20116;-56
2022/08/18 00:14:53;;;;;;;4.85;4.32;;;27.30;56.00;;;;;;5021341;28;20018;-55
2022/08/18 00:17:18;;;;;;;5.63;4.40;;;27.30;55.90;;;;;;5026609;28;20365;-54
2022/08/18 00:19:45;;;;;;;4.47;4.07;;;27.30;56.00;;;;;;5028140;28;20099;-57
2022/08/18 00:22:14;;;;;;;4.68;4.20;;;27.30;55.90;;;;;;5027961;28;20026;-55
2022/08/18 00:24:40;;;;;;;4.97;4.40;;;27.30;55.90;;;;;;5027055;28;20037;-57
2022/08/18 00:27:09;;;;;;;4.78;4.05;;;27.30;55.80;;;;;;5026401;28;20037;-56
2022/08/18 00:29:35;;;;;;;5.05;4.25;;;27.30;55.80;;;;;;5023840;28;20369;-57
2022/08/18 00:32:12;;;;;;;5.47;4.38;;;27.30;55.80;;;;;;5024137;28;20025;-55
2022/08/18 00:34:38;;;;;;;5.47;3.92;;;27.30;55.90;;;;;;5025534;28;20183;-54
2022/08/18 00:37:04;;;;;;;5.35;4.35;;;27.30;55.90;;;;;;5023776;28;20481;-55
2022/08/18 00:39:32;;;;;;;5.85;4.03;;;27.30;55.90;;;;;;5023855;28;20053;-55
2022/08/18 00:41:58;;;;;;;4.50;4.07;;;27.30;55.90;;;;;;5026619;28;20647;-56
2022/08/18 00:44:24;;;;;;;5.28;3.83;;;27.30;55.80;;;;;;5027710;28;20112;-54
2022/08/18 00:46:50;;;;;;;5.57;4.75;;;27.30;55.80;;;;;;5026534;28;20116;-57
2022/08/18 00:49:17;;;;;;;4.75;4.07;;;27.20;55.70;;;;;;5025638;28;20038;-54
2022/08/18 00:51:48;;;;;;;4.40;3.63;;;27.20;55.70;;;;;;5025773;28;20071;-55
2022/08/18 00:54:20;;;;;;;4.65;4.25;;;27.30;55.80;;;;;;5025763;28;20030;-51
2022/08/18 00:56:50;;;;;;;5.32;4.28;;;27.30;55.80;;;;;;5027588;28;20065;-56
2022/08/18 00:59:25;;;;;;;4.10;3.70;;;27.20;55.70;;;;;;5025567;28;20034;-54
2022/08/18 01:01:54;;;;;;;4.45;4.05;;;27.20;55.70;;;;;;5021029;28;20041;-52
2022/08/18 01:04:43;;;;;;;6.03;4.43;;;27.20;55.70;;;;;;5027495;28;20021;-56
2022/08/18 01:07:19;;;;;;;3.83;3.53;;;27.20;55.70;;;;;;5029766;28;20030;-53
2022/08/18 01:09:47;;;;;;;5.15;4.18;;;27.20;55.70;;;;;;5024288;28;20053;-55
2022/08/18 01:12:14;;;;;;;5.75;4.07;;;27.20;56.00;;;;;;5026321;28;20033;-53
2022/08/18 01:14:40;;;;;;;4.35;3.95;;;27.20;55.70;;;;;;5025264;28;20296;-56
2022/08/18 01:22:49;;;;;;;5.20;3.38;;;27.20;55.70;;;;;;5025445;28;20368;-54
2022/08/18 01:28:05;;;;;;;4.25;3.83;;;27.10;55.50;;;;;;5025721;28;20022;-54
2022/08/18 01:30:43;;;;;;;4.30;3.80;;;27.10;55.50;;;;;;5023848;28;20428;-55
2022/08/18 01:33:11;;;;;;;4.55;3.72;;;27.10;55.50;;;;;;5026317;28;20029;-55
2022/08/18 01:35:41;;;;;;;4.00;3.65;;;27.10;55.50;;;;;;5028701;28;20091;-51
2022/08/18 01:38:07;;;;;;;4.45;3.53;;;27.10;55.50;;;;;;5024966;28;20079;-55
2022/08/18 01:40:33;;;;;;;5.57;3.72;;;27.10;55.40;;;;;;5024919;28;20072;-53
2022/08/18 01:43:02;;;;;;;3.75;3.40;;;27.10;55.40;;;;;;5024719;28;20053;-53
2022/08/18 01:45:28;;;;;;;3.80;3.00;;;27.10;55.40;;;;;;5024374;28;20029;-54
2022/08/18 01:47:54;;;;;;;4.28;3.35;;;27.10;55.30;;;;;;5026173;28;20368;-54
2022/08/18 01:50:20;;;;;;;3.63;3.28;;;27.10;55.20;;;;;;5024179;28;20042;-56
2022/08/18 01:52:46;;;;;;;4.00;3.60;;;27.10;55.20;;;;;;5024633;28;21695;-54
2022/08/18 01:55:12;;;;;;;3.83;3.42;;;27.10;55.20;;;;;;5024222;28;20052;-53
2022/08/18 01:57:41;;;;;;;3.47;3.17;;;27.10;55.10;;;;;;5024765;28;20030;-52
2022/08/18 02:00:09;;;;;;;3.67;3.20;;;27.10;55.10;;;;;;5024303;28;21754;-55
2022/08/18 02:02:38;;;;;;;3.38;3.08;;;27.10;55.10;;;;;;5022933;28;20094;-55
2022/08/18 02:05:10;;;;;;;4.20;3.30;;;27.10;55.00;;;;;;5026245;28;20061;-52
2022/08/18 02:07:37;;;;;;;3.15;2.85;;;27.00;54.90;;;;;;5023891;28;20488;-53
2022/08/18 02:10:09;;;;;;;3.95;3.13;;;27.00;54.90;;;;;;5025076;28;20045;-51
2022/08/18 02:12:36;;;;;;;4.18;3.10;;;27.00;54.80;;;;;;5024362;28;20038;-53
2022/08/18 02:15:03;;;;;;;3.75;3.08;;;27.00;54.80;;;;;;5022354;28;20038;-53
2022/08/18 02:17:35;;;;;;;3.05;2.63;;;27.00;54.80;;;;;;5024465;28;20049;-51
2022/08/18 02:20:00;;;;;;;3.72;3.03;;;27.00;54.70;;;;;;5023314;28;20052;-54
2022/08/18 02:22:26;;;;;;;2.80;2.30;;;27.00;54.70;;;;;;5026286;28;20441;-55
2022/08/18 02:24:52;;;;;;;3.05;2.75;;;27.00;54.60;;;;;;5023735;28;20080;-52
2022/08/18 02:27:18;;;;;;;3.33;2.50;;;27.00;54.60;;;;;;5023767;28;20417;-54
2022/08/18 02:29:44;;;;;;;2.75;2.47;;;27.00;54.50;;;;;;5025005;28;20385;-53
2022/08/18 02:32:10;;;;;;;3.33;2.63;;;27.00;54.50;;;;;;5023387;28;20029;-53
2022/08/18 02:34:36;;;;;;;2.38;2.17;;;27.00;54.40;;;;;;5023715;28;20026;-57
2022/08/18 02:37:02;;;;;;;3.20;2.65;;;27.00;54.40;;;;;;5023734;28;20029;-51
2022/08/18 02:39:28;;;;;;;3.05;2.70;;;27.00;54.30;;;;;;5024100;28;20030;-54
2022/08/18 02:41:53;;;;;;;2.95;2.70;;;27.00;54.30;;;;;;5022698;28;20120;-55
2022/08/18 02:44:19;;;;;;;3.30;2.47;;;26.90;54.20;;;;;;5022061;28;20137;-53
2022/08/18 02:46:45;;;;;;;2.85;2.35;;;26.90;54.20;;;;;;5024974;28;20127;-53
2022/08/18 02:49:11;;;;;;;3.13;2.58;;;26.90;54.20;;;;;;5025566;28;20107;-56
2022/08/18 02:51:38;;;;;;;3.58;2.50;;;26.90;54.20;;;;;;5027051;28;20033;-55
2022/08/18 02:54:08;;;;;;;3.75;2.80;;;26.90;54.20;;;;;;5022794;28;20025;-53
2022/08/18 02:56:34;;;;;;;3.13;2.45;;;26.90;54.20;;;;;;5021378;28;20418;-53
2022/08/18 02:59:04;;;;;;;3.15;2.35;;;26.90;54.10;;;;;;5022044;28;20112;-51
2022/08/18 03:01:37;;;;;;;2.95;2.20;;;26.90;54.10;;;;;;5024040;28;20084;-54
2022/08/18 03:04:05;;;;;;;2.58;2.00;;;26.90;54.10;;;;;;5023465;28;20408;-55
2022/08/18 03:06:32;;;;;;;6.40;2.17;;;26.90;54.10;;;;;;5024906;28;20476;-53
2022/08/18 03:08:58;;;;;;;4.15;2.63;;;26.90;54.10;;;;;;5023361;28;20490;-51
2022/08/18 03:11:27;;;;;;;2.90;2.60;;;26.90;54.10;;;;;;5024412;28;20026;-53
2022/08/18 03:13:53;;;;;;;2.35;2.15;;;26.90;54.70;;;;;;5023024;28;20038;-53
2022/08/18 03:16:20;;;;;;;2.50;2.20;;;26.90;54.10;;;;;;5023799;28;20026;-53
2022/08/18 03:18:46;;;;;;;2.78;2.30;;;26.80;54.00;;;;;;5024728;28;20030;-52
2022/08/18 03:21:20;;;;;;;3.08;2.42;;;26.80;54.60;;;;;;5025163;28;20105;-56
2022/08/18 03:23:47;;;;;;;2.55;2.13;;;26.80;54.00;;;;;;5022251;28;20109;-54
2022/08/18 03:26:14;;;;;;;2.65;2.15;;;26.80;54.00;;;;;;5022399;28;20029;-56
2022/08/18 03:28:42;;;;;;;3.17;2.20;;;26.80;54.00;;;;;;5024232;28;20092;-52
2022/08/18 03:31:10;;;;;;;3.00;2.10;;;26.80;54.00;;;;;;5023939;28;20037;-55
2022/08/18 03:33:36;;;;;;;3.15;2.20;;;26.80;54.00;;;;;;5022119;28;20029;-56
2022/08/18 03:36:06;;;;;;;2.58;2.05;;;26.80;54.00;;;;;;5022938;28;20025;-56
2022/08/18 03:38:31;;;;;;;3.20;2.05;;;26.80;54.00;;;;;;5022418;28;20176;-57
2022/08/18 03:40:57;;;;;;;3.45;2.25;;;26.80;54.00;;;;;;5024133;28;20109;-52
2022/08/18 03:43:23;;;;;;;2.40;1.98;;;26.80;54.00;;;;;;5023716;28;20120;-54
2022/08/18 03:45:49;;;;;;;2.90;2.25;;;26.80;54.00;;;;;;5026249;28;20034;-57
2022/08/18 03:48:16;;;;;;;2.33;2.00;;;26.80;54.00;;;;;;5022887;28;20101;-55
2022/08/18 03:50:46;;;;;;;2.95;2.28;;;26.80;54.00;;;;;;5021131;28;20184;-52
2022/08/18 03:53:11;;;;;;;2.90;2.33;;;26.80;54.00;;;;;;5025335;28;20101;-55
2022/08/18 03:55:40;;;;;;;3.30;2.00;;;26.70;54.00;;;;;;5019939;28;21825;-58
2022/08/18 03:58:06;;;;;;;3.60;2.38;;;26.70;54.00;;;;;;5020780;28;20123;-53
2022/08/18 04:00:32;;;;;;;3.08;2.20;;;26.80;54.00;;;;;;5021574;28;20476;-52
2022/08/18 04:03:01;;;;;;;2.95;2.20;;;26.70;54.00;;;;;;5022826;28;20033;-57
2022/08/18 04:05:28;;;;;;;3.67;2.22;;;26.70;54.00;;;;;;5022581;28;20057;-55
2022/08/18 04:07:55;;;;;;;2.78;1.90;;;26.70;54.00;;;;;;5022376;28;20021;-51
2022/08/18 04:10:23;;;;;;;3.47;2.30;;;26.70;54.00;;;;;;5022753;28;20041;-55
2022/08/18 04:12:49;;;;;;;4.38;2.38;;;26.70;54.00;;;;;;5023063;28;20463;-55
2022/08/18 04:15:15;;;;;;;2.17;1.98;;;26.70;54.00;;;;;;5024678;28;20049;-55
2022/08/18 04:17:41;;;;;;;3.10;2.20;;;26.70;54.00;;;;;;5023733;28;20025;-53
2022/08/18 04:20:07;;;;;;;2.13;1.92;;;26.70;54.00;;;;;;5024761;28;20037;-53
2022/08/18 04:22:33;;;;;;;2.72;2.10;;;26.70;54.00;;;;;;5021966;28;20048;-54
2022/08/18 04:25:00;;;;;;;2.30;2.00;;;26.70;54.10;;;;;;5020672;28;20034;-52
2022/08/18 04:27:26;;;;;;;2.72;2.03;;;26.70;54.10;;;;;;5022941;28;20084;-54
2022/08/18 04:29:55;;;;;;;2.75;2.03;;;26.70;54.10;;;;;;5023092;28;20038;-55
2022/08/18 04:32:22;;;;;;;2.90;1.88;;;26.70;54.10;;;;;;5018226;28;20109;-55
2022/08/18 04:34:48;;;;;;;2.90;1.98;;;26.70;54.00;;;;;;5022559;28;20104;-52
2022/08/18 04:37:15;;;;;;;3.25;2.03;;;26.60;54.00;;;;;;5019191;28;20018;-50
2022/08/18 04:39:43;;;;;;;2.17;1.98;;;26.70;54.00;;;;;;5023718;28;20049;-54
2022/08/18 04:42:10;;;;;;;3.00;2.08;;;26.70;54.00;;;;;;5021652;28;20026;-56
2022/08/18 04:44:38;;;;;;;5.40;2.00;;;26.60;54.00;;;;;;5023577;28;20041;-55
2022/08/18 04:47:07;;;;;;;2.45;2.00;;;26.60;54.00;;;;;;5020703;28;20030;-55
2022/08/18 04:49:34;;;;;;;2.45;1.85;;;26.60;54.00;;;;;;5020013;28;20393;-55
2022/08/18 04:54:44;;;;;;;;;;;26.60;54.00;;;;;;5023077;28;20385;-55
2022/08/18 04:57:15;;;;;;;2.58;1.80;;;26.60;54.00;;;;;;5020562;28;19914;-54
2022/08/18 04:59:44;;;;;;;2.42;2.10;;;26.60;54.00;;;;;;5021662;28;20441;-56
2022/08/18 05:02:10;;;;;;;2.92;1.80;;;26.60;54.10;;;;;;5021805;28;20034;-54
2022/08/18 05:04:39;;;;;;;2.65;2.05;;;26.60;54.10;;;;;;5025132;28;20385;-57
2022/08/18 05:07:10;;;;;;;2.15;1.80;;;26.60;54.20;;;;;;5024943;28;20025;-54
2022/08/18 05:09:40;;;;;;;2.75;2.08;;;26.60;54.20;;;;;;5025936;28;20029;-52
2022/08/18 05:12:08;;;;;;;3.03;2.00;;;26.60;54.20;;;;;;5025769;28;20037;-54
2022/08/18 05:14:34;;;;;;;3.30;1.90;;;26.50;54.10;;;;;;5024922;28;20441;-53
2022/08/18 05:17:02;;;;;;;3.08;2.10;;;26.60;54.30;;;;;;5023668;28;20041;-54
2022/08/18 05:19:29;;;;;;;2.40;2.00;;;26.60;54.30;;;;;;5025183;28;20071;-57
2022/08/18 05:21:57;;;;;;;4.20;2.10;;;26.60;54.30;;;;;;5026292;28;20018;-53
2022/08/18 05:24:25;;;;;;;2.67;2.10;;;26.50;54.30;;;;;;5026282;28;20032;-55
2022/08/18 05:26:51;;;;;;;3.88;2.38;;;26.60;54.40;;;;;;5026016;28;20033;-50
2022/08/18 05:29:21;;;;;;;2.63;2.30;;;26.60;54.40;;;;;;5024168;28;20040;-56
2022/08/18 05:31:48;;;;;;;3.70;2.50;;;26.60;54.50;;;;;;5027767;28;20113;-54
2022/08/18 05:34:16;;;;;;;2.50;2.00;;;26.60;54.50;;;;;;5026721;28;20026;-54
2022/08/18 05:36:47;;;;;;;2.80;2.40;;;26.60;54.50;;;;;;5027357;28;20053;-56
2022/08/18 05:39:34;;;;;;;2.58;2.03;;;26.60;54.60;;;;;;5025476;28;20468;-52
2022/08/18 05:42:18;;;;;;;4.82;2.55;;;26.60;54.60;;;;;;5026051;28;20513;-56
2022/08/18 05:44:49;;;;;;;4.40;2.33;;;26.50;54.50;;;;;;5025865;28;20380;-58
2022/08/18 05:47:18;;;;;;;4.43;2.10;;;26.50;54.50;;;;;;5025390;28;20483;-55
2022/08/18 05:49:47;;;;;;;5.30;2.33;;;26.50;54.60;;;;;;5025682;28;20044;-52
2022/08/18 05:52:29;;;;;;;2.92;2.13;;;26.50;54.70;;;;;;5024573;28;20029;-53
2022/08/18 05:57:50;;;;;;;3.53;2.17;;;26.50;54.70;;;;;;5023882;28;20120;-53
2022/08/18 06:00:18;;;;;;;4.82;2.92;;;26.50;54.80;;;;;;5025582;28;20085;-53
2022/08/18 06:02:54;;;;;;;4.90;2.40;;;26.50;54.80;;;;;;5025360;28;20061;-55
2022/08/18 06:05:31;;;;;;;4.25;2.45;;;26.60;54.90;;;;;;5024179;28;20064;-55
2022/08/18 06:08:04;;;;;;;4.13;2.20;;;26.50;54.80;;;;;;5021865;28;20441;-54
2022/08/18 06:10:30;;;;;;;4.53;2.25;;;26.50;54.80;;;;;;5024703;28;20042;-54
2022/08/18 06:12:59;;;;;;;4.35;2.00;;;26.50;54.80;;;;;;5024125;28;20065;-55
2022/08/18 06:15:34;;;;;;;5.38;2.55;;;26.50;54.80;;;;;;5020091;28;20114;-55
2022/08/18 06:18:29;;;;;;;3.70;2.22;;;26.50;54.80;;;;;;5026954;28;20112;-53
2022/08/18 06:21:05;;;;;;;4.43;2.47;;;26.50;54.80;;;;;;5022988;28;20061;-55
2022/08/18 06:23:50;;;;;;;4.95;2.10;;;26.50;54.80;;;;;;5023977;28;20041;-56
2022/08/18 06:26:44;;;;;;;3.30;1.98;;;26.50;54.90;;;;;;5023963;28;20030;-56
2022/08/18 06:29:15;;;;;;;2.80;2.13;;;26.50;54.90;;;;;;5025591;28;20025;-53
2022/08/18 06:32:13;;;;;;;4.63;2.15;;;26.50;54.90;;;;;;5025792;28;20048;-52
2022/08/18 06:35:17;;;;;;;6.47;2.70;;;26.50;55.00;;;;;;5020345;28;20064;-53
2022/08/18 06:40:42;;;;;;;2.80;2.13;;;26.50;55.00;;;;;;5024849;28;20022;-55
2022/08/18 06:43:12;;;;;;;4.45;2.33;;;26.50;55.00;;;;;;5021872;28;20052;-54
2022/08/18 06:45:50;;;;;;;2.78;2.13;;;26.50;55.10;;;;;;5022291;28;20409;-54
2022/08/18 06:48:30;;;;;;;4.90;2.03;;;26.50;55.10;;;;;;5030629;28;20048;-53
2022/08/18 06:51:01;;;;;;;2.28;1.90;;;26.50;55.00;;;;;;5034400;28;20116;-53
2022/08/18 06:53:54;;;;;;;3.25;2.08;;;26.60;55.00;;;;;;5027614;28;20117;-56
2022/08/18 06:56:38;;;;;;;2.67;1.73;;;26.60;54.90;;;;;;5024157;28;20064;-53
2022/08/18 06:59:20;;;;;;;2.50;1.63;;;26.60;54.90;;;;;;5024539;28;20041;-53
2022/08/18 07:01:51;;;;;;;3.38;1.88;;;26.60;54.80;;;;;;5020544;28;20434;-51
2022/08/18 07:04:43;;;;;;;3.45;1.90;;;26.60;54.80;;;;;;5021243;28;20026;-52
2022/08/18 07:07:19;;;;;;;3.20;1.95;;;26.60;54.70;;;;;;5023775;28;20381;-53
2022/08/18 07:09:46;;;;;;;2.80;1.70;;;26.70;54.80;;;;;;5022286;28;20033;-53
2022/08/18 07:12:20;;;;;;;2.83;1.65;;;26.70;54.70;;;;;;5023653;28;20056;-53
2022/08/18 07:14:50;;;;;;;3.33;1.60;;;26.70;54.60;;;;;;5018702;28;20044;-54
2022/08/18 07:17:25;;;;;;;2.83;1.85;;;26.70;54.50;;;;;;5022940;28;20045;-54
2022/08/18 07:20:24;;;;;;;2.58;1.75;;;26.70;54.50;;;;;;5015824;28;20477;-56
2022/08/18 07:22:59;;;;;;;3.40;1.73;;;26.80;54.40;;;;;;5023811;28;20030;-54
2022/08/18 07:25:48;;;;;;;1.58;1.40;;;26.80;54.40;;;;;;5023047;28;20067;-51
2022/08/18 07:28:30;;;;;;;2.78;1.50;;;26.80;54.30;;;;;;5025317;28;20049;-57
2022/08/18 07:31:34;;;;;;;3.00;1.65;;;26.80;54.30;;;;;;5015221;28;20365;-56
2022/08/18 07:34:13;;;;;;;1.55;1.45;;;26.80;54.30;;;;;;5016035;28;20037;-58
2022/08/18 07:36:48;;;;;;;1.33;1.10;;;26.80;54.20;;;;;;5030394;28;20041;-53
2022/08/18 07:39:48;;;;;;;1.95;1.50;;;26.80;54.20;;;;;;5022775;28;20118;-52
2022/08/18 07:42:43;;;;;;;2.55;1.60;;;26.80;54.10;;;;;;5017570;28;20025;-50
2022/08/18 07:45:29;;;;;;;2.70;1.63;;;26.80;54.10;;;;;;5023659;28;20099;-53
2022/08/18 07:48:17;;;;;;;2.25;1.70;;;26.80;54.10;;;;;;5016517;28;20045;-53
2022/08/18 07:50:46;;;;;;;2.72;1.75;;;26.80;54.00;;;;;;5015057;28;20052;-56
2022/08/18 07:53:32;;;;;;;2.38;1.40;;;26.80;54.00;;;;;;5015617;28;20033;-53
2022/08/18 07:56:06;;;;;;;1.55;1.45;;;26.80;54.00;;;;;;5015098;28;20131;-53
2022/08/18 07:58:48;;;;;;;2.05;1.50;;;26.80;54.00;;;;;;5015462;28;20045;-52
2022/08/18 08:01:39;;;;;;;3.55;1.95;;;26.80;53.90;;;;;;5019883;28;20070;-53
2022/08/18 08:04:11;;;;;;;2.50;1.60;;;26.90;53.90;;;;;;5030729;28;20353;-51
2022/08/18 08:06:52;;;;;;;1.55;1.30;;;26.90;53.90;;;;;;5015308;28;20037;-55
2022/08/18 08:09:29;;;;;;;2.55;1.40;;;26.90;53.90;;;;;;5015340;28;20040;-53
2022/08/18 08:12:08;;;;;;;2.28;1.60;;;26.90;53.90;;;;;;5016208;28;20399;-50
2022/08/18 08:14:41;;;;;;;1.92;1.42;;;26.90;53.90;;;;;;5015720;28;20044;-56
2022/08/18 08:17:26;;;;;;;1.27;1.13;;;26.90;53.90;;;;;;5015173;28;20033;-55
2022/08/18 08:19:58;;;;;;;2.08;1.20;;;26.90;53.80;;;;;;5015356;28;20092;-53
2022/08/18 08:22:41;;;;;;;1.98;1.35;;;26.90;53.80;;;;;;5025739;28;20026;-55
2022/08/18 08:25:13;;;;;;;2.08;1.30;;;26.90;53.60;;;;;;5034701;28;20037;-54
2022/08/18 08:27:53;;;;;;;2.13;1.30;;;27.00;53.60;;;;;;5030535;28;20349;-54
2022/08/18 08:30:23;;;;;;;2.60;1.40;;;27.00;53.50;;;;;;5014915;28;20041;-52
2022/08/18 08:33:26;;;;;;;2.88;1.65;;;26.90;53.30;;;;;;5014890;28;20030;-55
2022/08/18 08:36:13;;;;;;;2.35;1.30;;;27.00;53.30;;;;;;5014927;28;20061;-53
2022/08/18 08:38:44;;;;;;;1.45;1.35;;;27.00;53.30;;;;;;5018346;28;20449;-55
2022/08/18 08:41:21;;;;;;;1.85;1.20;;;27.00;53.20;;;;;;5018902;28;20029;-55
2022/08/18 08:43:56;;;;;;;1.50;1.27;;;27.00;53.20;;;;;;5033090;28;20064;-54
2022/08/18 08:46:28;;;;;;;2.40;1.40;;;27.00;53.10;;;;;;5038805;28;20025;-53
2022/08/18 08:49:33;;;;;;;1.30;1.00;;;27.00;53.10;;;;;;5025839;28;20467;-54
2022/08/18 08:52:31;;;;;;;2.03;1.30;;;27.00;53.00;;;;;;5018131;28;20033;-55
2022/08/18 08:55:24;;;;;;;2.33;1.52;;;27.00;53.00;;;;;;4975335;28;20365;-52
2022/08/18 08:57:56;;;;;;;2.03;1.30;;;27.00;52.90;;;;;;5032462;28;20022;-53
2022/08/18 09:00:23;;;;;;;1.75;1.10;;;27.10;53.00;;;;;;5018318;28;20156;-55
2022/08/18 09:03:04;;;;;;;1.60;1.10;;;27.00;53.00;;;;;;5038278;28;20041;-57
2022/08/18 09:05:47;;;;;;;2.38;1.48;;;27.10;52.90;;;;;;5036253;28;20053;-53
2022/08/18 09:08:32;;;;;;;2.25;1.38;;;27.10;52.80;;;;;;5038348;28;20036;-56
2022/08/18 09:11:10;;;;;;;1.92;1.17;;;27.10;52.70;;;;;;5029964;28;20527;-50
2022/08/18 09:13:42;;;;;;;3.45;1.45;;;27.10;52.70;;;;;;5017571;28;20121;-50
2022/08/18 09:16:19;;;;;;;1.85;1.35;;;27.10;52.60;;;;;;5024730;28;20461;-54
2022/08/18 09:18:49;;;;;;;3.65;1.60;;;27.10;52.50;;;;;;5028665;28;20030;-56
2022/08/18 09:21:30;;;;;;;1.90;1.17;;;27.10;52.40;;;;;;5026311;28;20037;-52
2022/08/18 09:24:20;;;;;;;1.88;1.20;;;27.20;52.40;;;;;;5031167;28;20033;-54
2022/08/18 09:26:50;;;;;;;2.47;1.38;;;27.20;52.40;;;;;;5018467;28;20360;-52
2022/08/18 09:29:24;;;;;;;2.05;1.40;;;27.20;52.30;;;;;;5018203;28;20052;-54
2022/08/18 09:32:18;;;;;;;1.98;1.30;;;27.20;52.30;;;;;;5023164;28;20045;-54
2022/08/18 09:35:09;;;;;;;1.75;1.30;;;27.20;52.20;;;;;;5024910;28;20037;-56
2022/08/18 09:43:38;;;;;;;1.40;1.20;;;27.20;52.00;;;;;;5028944;28;20021;-55
2022/08/18 09:46:06;;;;;;;1.50;1.30;;;27.20;52.00;;;;;;5037115;28;20033;-56
2022/08/18 09:48:35;;;;;;;2.53;1.70;;;27.20;52.00;;;;;;5027758;28;20456;-54
2022/08/18 09:51:19;;;;;;;2.50;1.65;;;27.30;52.00;;;;;;5035676;28;20049;-54
2022/08/18 09:53:53;;;;;;;3.15;1.50;;;27.20;52.00;;;;;;5024601;28;20021;-52
2022/08/18 09:56:39;;;;;;;;;;;27.30;52.10;;;;;;5017679;28;20037;-53
2022/08/18 09:59:05;;;;;;;2.85;1.70;;;27.20;52.10;;;;;;5017329;28;20241;-55
2022/08/18 10:01:38;;;;;;;2.10;1.70;;;27.30;52.20;;;;;;5018963;28;20036;-53
2022/08/18 10:04:13;;;;;;;2.95;1.88;;;27.20;52.10;;;;;;5018449;28;20335;-56
2022/08/18 10:06:41;;;;;;;4.13;2.75;;;27.30;52.20;;;;;;5033935;28;20477;-53
2022/08/18 10:09:26;;;;;;;4.70;2.53;;;27.30;52.10;;;;;;5025161;28;20464;-54
2022/08/18 10:12:22;;;;;;;3.38;2.00;;;27.20;52.00;;;;;;5026781;28;20044;-55
2022/08/18 10:15:13;;;;;;;7.40;2.42;;;27.30;52.00;;;;;;5024426;28;20472;-52
2022/08/18 10:18:13;;;;;;;7.43;2.47;;;27.30;52.00;;;;;;5027191;28;20064;-58
2022/08/18 10:20:53;;;;;;;3.90;2.13;;;27.30;51.90;;;;;;5025803;28;20045;-57
2022/08/18 10:23:41;;;;;;;8.07;2.33;;;27.30;52.00;;;;;;5024003;28;20037;-55
2022/08/18 10:26:29;;;;;;;2.95;1.95;;;27.30;52.00;;;;;;5026129;28;20045;-57
2022/08/18 10:28:58;;;;;;;3.78;2.10;;;27.30;52.00;;;;;;5024487;28;20022;-55
2022/08/18 10:31:25;;;;;;;6.03;2.00;;;27.30;52.10;;;;;;5029839;28;20345;-57
2022/08/18 10:33:57;;;;;;;2.78;1.92;;;27.30;52.10;;;;;;5026965;28;21680;-56
2022/08/18 10:36:44;;;;;;;6.90;2.10;;;27.30;52.10;;;;;;5030491;28;20053;-56
2022/08/18 10:39:19;;;;;;;4.05;1.90;;;27.30;52.00;;;;;;5024734;28;20021;-56
2022/08/18 10:42:03;;;;;;;2.15;1.70;;;27.30;52.00;;;;;;5026680;28;20831;-52
2022/08/18 10:44:30;;;;;;;;;;;27.30;51.90;;;;;;5025053;28;20029;-58
2022/08/18 10:46:58;;;;;;;2.47;1.45;;;27.30;51.90;;;;;;5022225;28;20350;-57
2022/08/18 10:49:30;;;;;;;2.03;1.50;;;27.30;51.80;;;;;;5027402;28;20026;-56
2022/08/18 10:52:07;;;;;;;2.25;1.70;;;27.30;51.60;;;;;;5030135;28;20026;-59
2022/08/18 10:54:44;;;;;;;2.05;1.55;;;27.30;51.60;;;;;;5025376;28;20084;-58
2022/08/18 10:57:39;;;;;;;2.03;1.45;;;27.30;51.50;;;;;;5023244;28;20060;-59
2022/08/18 11:00:12;;;;;;;1.95;1.48;;;27.30;51.40;;;;;;5012859;28;20048;-57
2022/08/18 11:02:47;;;;;;;2.05;1.48;;;27.40;51.40;;;;;;5024920;28;20083;-56
2022/08/18 11:05:18;;;;;;;2.30;1.60;;;27.40;51.40;;;;;;5027118;28;20496;-56
2022/08/18 11:07:51;;;;;;;2.05;1.50;;;27.40;51.30;;;;;;5024242;28;20029;-55
2022/08/18 11:10:23;;;;;;;1.73;1.40;;;27.40;51.30;;;;;;5026887;28;20380;-56
2022/08/18 11:13:16;;;;;;;2.53;1.65;;;27.40;51.40;;;;;;5020133;28;20030;-61
2022/08/18 11:15:59;;;;;;;3.72;1.50;;;27.50;51.50;;;;;;5018939;28;20156;-62
2022/08/18 11:18:34;;;;;;;1.77;1.40;;;27.50;51.60;;;;;;5020464;28;20038;-59
2022/08/18 11:21:29;;;;;;;1.90;1.50;;;27.50;51.70;;;;;;5018693;28;20025;-63
2022/08/18 11:24:04;;;;;;;1.75;1.50;;;27.50;51.60;;;;;;5020016;28;20056;-62
2022/08/18 11:26:33;;;;;;;1.30;1.20;;;27.60;51.60;;;;;;5038979;28;20053;-63
2022/08/18 11:29:15;;;;;;;2.10;1.67;;;27.60;51.50;;;;;;5022359;28;20022;-59
2022/08/18 11:31:41;;;;;;;1.95;1.38;;;27.70;51.40;;;;;;5015188;28;20045;-61
2022/08/18 11:34:15;;;;;;;1.35;1.20;;;27.80;51.40;;;;;;5018863;28;20074;-64
2022/08/18 11:36:41;;;;;;;1.95;1.40;;;28.00;51.50;;;;;;5020370;28;20326;-65
2022/08/18 11:39:12;;;;;;;4.70;1.40;;;28.00;51.30;;;;;;5020279;28;20022;-60
2022/08/18 11:41:45;;;;;;;5.10;1.50;;;28.10;51.20;;;;;;5024911;28;20437;-59
2022/08/18 11:44:21;;;;;;;2.00;1.25;;;28.30;51.10;;;;;;5016829;28;20096;-60
2022/08/18 11:46:47;;;;;;;3.75;1.30;;;28.40;50.90;;;;;;5018784;28;20326;-63
2022/08/18 11:49:28;;;;;;;2.10;1.45;;;28.50;50.70;;;;;;5026716;28;20037;-61
2022/08/18 11:52:04;;;;;;;1.60;1.30;;;28.50;50.50;;;;;;5017448;28;20109;-63
2022/08/18 11:54:41;;;;;;;2.05;1.45;;;28.60;50.30;;;;;;5015006;28;20040;-63
2022/08/18 11:57:28;;;;;;;2.75;1.73;;;28.70;50.20;;;;;;5027493;28;20033;-64
2022/08/18 11:59:55;;;;;;;1.73;1.50;;;28.70;49.90;;;;;;5019040;28;20033;-61
2022/08/18 12:02:24;;;;;;;4.40;1.75;;;28.80;49.80;;;;;;5026391;28;20033;-63
2022/08/18 12:04:52;;;;;;;2.88;1.50;;;28.90;49.70;;;;;;5023486;28;20021;-62
2022/08/18 12:07:28;;;;;;;2.75;1.88;;;28.90;49.50;;;;;;5019069;28;20025;-65
2022/08/18 12:10:11;;;;;;;2.17;1.65;;;28.90;49.40;;;;;;5023062;28;20053;-62
2022/08/18 12:12:46;;;;;;;1.58;1.42;;;29.00;49.30;;;;;;5021095;28;20400;-63
2022/08/18 12:15:12;;;;;;;1.77;1.50;;;29.00;49.20;;;;;;5020953;28;20048;-60
2022/08/18 12:17:40;;;;;;;2.05;1.60;;;29.00;49.10;;;;;;5028245;28;20018;-60
2022/08/18 12:20:07;;;;;;;1.85;1.52;;;29.00;49.10;;;;;;5021310;28;20061;-61
2022/08/18 12:22:34;;;;;;;2.17;1.42;;;29.10;49.00;;;;;;5022647;28;20030;-59
2022/08/18 12:25:02;;;;;;;1.90;1.70;;;29.10;48.90;;;;;;5022212;28;20127;-58
2022/08/18 12:27:30;;;;;;;1.90;1.70;;;29.20;48.80;;;;;;5022262;28;20033;-60
2022/08/18 12:29:59;;;;;;;1.40;1.30;;;29.30;48.60;;;;;;5020633;28;20453;-60
2022/08/18 12:32:28;;;;;;;1.80;1.40;;;29.30;48.50;;;;;;5024934;28;20033;-57
2022/08/18 12:34:54;;;;;;;1.67;1.48;;;29.30;48.40;;;;;;5021040;28;20461;-55
2022/08/18 12:37:23;;;;;;;1.73;1.30;;;29.40;48.30;;;;;;5023546;28;20030;-55
2022/08/18 12:39:50;;;;;;;2.10;1.40;;;29.40;48.20;;;;;;5031618;28;20038;-58
2022/08/18 12:42:16;;;;;;;1.77;1.30;;;29.40;48.10;;;;;;5021580;28;20061;-61
2022/08/18 12:44:42;;;;;;;1.58;1.45;;;29.40;48.10;;;;;;5021016;28;20029;-59
2022/08/18 12:47:17;;;;;;;1.17;1.08;;;29.40;48.00;;;;;;5038193;28;20108;-58
2022/08/18 12:49:43;;;;;;;1.50;1.40;;;29.40;47.90;;;;;;5040645;28;20033;-58
2022/08/18 12:52:09;;;;;;;2.17;1.27;;;29.40;47.90;;;;;;5034184;28;20037;-57
2022/08/18 12:54:36;;;;;;;1.60;1.15;;;29.30;47.80;;;;;;5022088;28;20034;-58
2022/08/18 12:57:07;;;;;;;1.17;1.00;;;29.40;47.90;;;;;;5036065;28;20021;-59
2022/08/18 12:59:34;;;;;;;2.35;1.50;;;29.30;47.80;;;;;;5036014;28;20034;-58
2022/08/18 13:02:00;;;;;;;2.17;1.40;;;29.40;47.80;;;;;;5033044;28;20444;-58
2022/08/18 13:04:27;;;;;;;1.45;1.35;;;29.30;47.70;;;;;;5034355;28;20353;-60
2022/08/18 13:06:55;;;;;;;1.77;1.25;;;29.30;47.70;;;;;;5027193;28;20042;-56
2022/08/18 13:09:21;;;;;;;1.52;1.20;;;29.30;47.60;;;;;;5035502;28;20124;-60
2022/08/18 13:11:48;;;;;;;1.92;1.52;;;29.30;47.60;;;;;;5033296;28;20061;-59
2022/08/18 13:14:16;;;;;;;1.73;1.10;;;29.40;47.60;;;;;;5030684;28;20132;-60
2022/08/18 13:16:44;;;;;;;1.92;1.30;;;29.40;47.60;;;;;;5038004;28;20025;-61
2022/08/18 13:19:13;;;;;;;1.85;1.30;;;29.30;47.50;;;;;;5022580;28;20073;-57
2022/08/18 13:21:40;;;;;;;1.65;1.20;;;29.30;47.50;;;;;;5021063;28;20029;-57
2022/08/18 13:24:06;;;;;;;2.55;1.27;;;29.30;47.50;;;;;;5018532;28;20044;-59
2022/08/18 13:26:37;;;;;;;1.23;1.13;;;29.30;47.50;;;;;;5018093;28;20034;-61
2022/08/18 13:29:03;;;;;;;1.60;1.33;;;29.30;47.50;;;;;;5031671;28;20048;-58
2022/08/18 13:31:32;;;;;;;1.23;1.10;;;29.30;47.50;;;;;;5018586;28;20168;-60
2022/08/18 13:33:58;;;;;;;1.33;1.17;;;29.40;47.50;;;;;;5017620;28;20022;-55
2022/08/18 13:36:26;;;;;;;1.70;1.42;;;29.40;47.50;;;;;;5029022;28;20040;-61
2022/08/18 13:38:52;;;;;;;1.90;1.48;;;29.30;48.00;;;;;;5024477;28;20041;-56
2022/08/18 13:41:20;;;;;;;1.83;1.27;;;29.40;47.40;;;;;;5020914;28;20033;-60